Time;durP1;ratioP1;P1;durP2;ratioP2;P2;SDS_P1;SDS_P2;PMS_P1;PMS_P2;Temp;Humidity;BMP_temperature;BMP_pressure;BME280_temperature;BME280_humidity;BME280_pressure;Samples;Min_cycle;Max_cycle;Signal;HPM_P1;HPM_P2
2023/12/06 00:00:29;;;;;;;;;;;;;;;0.81;79.41;100599.78;4159312;28;19984;-89
2023/12/06 00:02:50;;;;;;;;;;;;;;;0.81;79.42;100600.63;4172505;28;19970;-89
2023/12/06 00:05:12;;;;;;;;;;;;;;;0.81;79.42;100597.97;4160723;28;19931;-89
2023/12/06 00:07:34;;;;;;;;;;;;;;;0.82;79.06;100597.00;4189625;28;20028;-89
2023/12/06 00:09:55;;;;;;;;;;;;;;;0.83;79.39;100600.50;4172088;28;19932;-88
2023/12/06 00:12:15;;;;;;;;;;;;;;;0.83;79.21;100596.06;4187078;28;19983;-90
2023/12/06 00:14:36;;;;;;;;;;;;;;;0.83;79.30;100592.53;4186138;28;19954;-89
2023/12/06 00:16:58;;;;;;;;;;;;;;;0.83;79.52;100589.88;4171110;28;19957;-89
2023/12/06 00:19:19;;;;;;;;;;;;;;;0.84;79.31;100588.91;4173491;28;20040;-89
2023/12/06 00:21:41;;;;;;;;;;;;;;;0.84;79.27;100588.91;4160864;28;19987;-89
2023/12/06 00:24:05;;;;;;;;;;;;;;;0.82;79.38;100573.06;4169928;28;19960;-90
2023/12/06 00:26:26;;;;;;;;;;;;;;;0.84;79.49;100581.78;4187230;28;19979;-90
2023/12/06 00:28:46;;;;;;;;;;;;;;;0.83;79.35;100588.09;4141571;28;19976;-90
2023/12/06 00:31:07;;;;;;;;;;;;;;;0.84;79.54;100589.75;4155073;28;19932;-89
2023/12/06 00:33:28;;;;;;;;;;;;;;;0.84;79.55;100592.41;4155107;28;19989;-89
2023/12/06 00:35:49;;;;;;;;;;;;;;;0.83;79.75;100592.53;4142287;28;19980;-90
2023/12/06 00:38:10;;;;;;;;;;;;;;;0.85;79.56;100598.59;4171100;28;19948;-90
2023/12/06 00:40:32;;;;;;;;;;;;;;;0.84;79.73;100595.06;4169533;28;19988;-89
2023/12/06 00:42:53;;;;;;;;;;;;;;;0.85;79.53;100599.44;4156103;28;19972;-89
2023/12/06 00:45:14;;;;;;;;;;;;;;;0.85;79.76;100593.28;4170540;28;20034;-89
2023/12/06 00:47:36;;;;;;;;;;;;;;;0.84;79.67;100595.06;4154331;28;19936;-89
2023/12/06 00:49:57;;;;;;;;;;;;;;;0.84;79.73;100594.22;4155014;28;19932;-89
2023/12/06 00:52:18;;;;;;;;;;;;;;;0.85;80.08;100593.28;4155054;28;20025;-89
2023/12/06 00:54:39;;;;;;;;;;;;;;;0.86;79.93;100593.16;4127438;28;20040;-90
2023/12/06 00:57:01;;;;;;;;;;;;;;;0.86;79.68;100593.16;4164270;28;19952;-88
2023/12/06 00:59:22;;;;;;;;;;;;;;;0.88;79.68;100593.03;4167465;28;19969;-88
2023/12/06 01:01:44;;;;;;;;;;;;;;;0.88;79.59;100591.22;4155567;28;19935;-88
2023/12/06 01:04:10;;;;;;;;;;;;;;;0.89;79.62;100600.03;4146098;28;20092;-88
2023/12/06 01:06:37;;;;;;;;;;;;;;;0.90;79.77;100601.75;4151557;28;20311;-89
2023/12/06 01:08:58;;;;;;;;;;;;;;;0.90;79.73;100593.75;4144134;28;19936;-88
2023/12/06 01:11:19;;;;;;;;;;;;;;;0.90;79.88;100602.56;4169649;28;19988;-89
2023/12/06 01:13:42;;;;;;;;;;;;;;;0.92;79.62;100604.28;4154303;28;20451;-88
2023/12/06 01:16:03;;;;;;;;;;;;;;;0.93;79.64;100604.16;4144233;28;19936;-88
2023/12/06 01:18:23;;;;;;;;;;;;;;;0.92;79.62;100602.47;4143786;28;19932;-89
2023/12/06 01:20:44;;;;;;;;;;;;;;;0.90;79.85;100613.22;4142076;28;20364;-89
2023/12/06 01:23:04;;;;;;;;;;;;;;;0.90;80.04;100613.22;4151900;28;20022;-88
2023/12/06 01:25:26;;;;;;;;;;;;;;;0.93;79.74;100620.13;4159843;28;20070;-88
2023/12/06 01:27:50;;;;;;;;;;;;;;;0.93;80.00;100611.31;4183591;28;20007;-90
2023/12/06 01:30:13;;;;;;;;;;;;;;;0.92;79.90;100613.09;4196468;28;19972;-90
2023/12/06 01:32:33;;;;;;;;;;;;;;;0.92;79.96;100605.13;4194652;28;19939;-90
2023/12/06 01:34:54;;;;;;;;;;;;;;;0.93;79.88;100608.66;4199676;28;19920;-89
2023/12/06 01:37:15;;;;;;;;;;;;;;;0.92;79.85;100612.25;4206921;28;19943;-90
2023/12/06 01:42:59;;;;;;;;;;;;;;;0.91;80.02;100619.41;4205267;28;20354;-89
2023/12/06 01:45:21;;;;;;;;;;;;;;;0.92;79.98;100622.91;4195915;28;19932;-89
2023/12/06 01:48:08;;;;;;;;;;;;;;;0.93;79.95;100616.63;4204528;28;19970;-88
2023/12/06 01:50:29;;;;;;;;;;;;;;;0.95;80.06;100622.66;4204754;28;20020;-89
2023/12/06 01:52:49;;;;;;;;;;;;;;;0.95;79.93;100614.69;4192215;28;20243;-88
2023/12/06 01:55:11;;;;;;;;;;;;;;;0.94;80.09;100621.81;4205912;28;20298;-89
2023/12/06 01:57:32;;;;;;;;;;;;;;;0.94;80.06;100621.81;4177668;28;19935;-88
2023/12/06 01:59:53;;;;;;;;;;;;;;;0.95;79.90;100620.84;4161627;28;20026;-87
2023/12/06 02:02:16;;;;;;;;;;;;;;;0.95;80.14;100615.53;4186571;28;19961;-88
2023/12/06 02:04:36;;;;;;;;;;;;;;;0.95;79.94;100620.00;4176905;28;19971;-89
2023/12/06 02:06:57;;;;;;;;;;;;;;;0.96;80.17;100614.56;4190927;28;19979;-88
2023/12/06 02:09:18;;;;;;;;;;;;;;;0.97;80.13;100624.25;4176659;28;20331;-88
2023/12/06 02:11:39;;;;;;;;;;;;;;;0.98;80.06;100609.97;4174979;28;19931;-88
2023/12/06 02:14:00;;;;;;;;;;;;;;;0.97;80.15;100610.97;4190584;28;20316;-89
2023/12/06 02:16:20;;;;;;;;;;;;;;;0.97;80.27;100616.28;4162952;28;20583;-88
2023/12/06 02:18:43;;;;;;;;;;;;;;;0.98;80.16;100611.78;4188789;28;19947;-88
2023/12/06 02:21:05;;;;;;;;;;;;;;;1.00;80.00;100607.19;4189257;28;20499;-88
2023/12/06 02:23:28;;;;;;;;;;;;;;;1.00;80.18;100609.84;4191924;28;20007;-88
2023/12/06 02:25:51;;;;;;;;;;;;;;;1.01;80.13;100615.06;4206266;28;19985;-87
2023/12/06 02:28:23;;;;;;;;;;;;;;;1.02;80.19;100603.47;4214223;28;19915;-89
2023/12/06 02:31:09;;;;;;;;;;;;;;;1.02;79.97;100610.56;4228994;28;19987;-90
2023/12/06 02:33:56;;;;;;;;;;;;;;;1.02;80.14;100608.78;4210511;28;19952;-89
2023/12/06 02:36:42;;;;;;;;;;;;;;;1.02;79.86;100603.47;4222042;28;19955;-90
2023/12/06 02:39:04;;;;;;;;;;;;;;;1.05;79.92;100603.22;4221139;28;19930;-90
2023/12/06 02:41:27;;;;;;;;;;;;;;;1.05;80.21;100600.56;4198963;28;19968;-91
2023/12/06 02:43:48;;;;;;;;;;;;;;;1.05;80.16;100605.88;4210592;28;19919;-91
2023/12/06 02:46:09;;;;;;;;;;;;;;;1.05;80.19;100600.56;4224996;28;19969;-92
2023/12/06 02:48:30;;;;;;;;;;;;;;;1.05;80.27;100597.91;4211982;28;19951;-91
2023/12/06 02:50:51;;;;;;;;;;;;;;;1.06;80.25;100601.41;4208963;28;19936;-90
2023/12/06 02:53:12;;;;;;;;;;;;;;;1.07;80.30;100601.28;4205279;28;19943;-90
2023/12/06 02:55:33;;;;;;;;;;;;;;;1.07;80.34;100593.31;4218866;28;19931;-90
2023/12/06 02:57:56;;;;;;;;;;;;;;;1.09;80.17;100595.84;4185691;28;19931;-89
2023/12/06 03:00:17;;;;;;;;;;;;;;;1.09;80.25;100595.84;4206918;28;19936;-89
2023/12/06 03:02:38;;;;;;;;;;;;;;;1.07;80.31;100592.47;4175402;28;19996;-90
2023/12/06 03:04:59;;;;;;;;;;;;;;;1.07;80.20;100593.31;4189881;28;19935;-88
2023/12/06 03:07:20;;;;;;;;;;;;;;;1.08;80.41;100596.78;4176249;28;19936;-88
2023/12/06 03:09:41;;;;;;;;;;;;;;;1.07;80.32;100593.31;4178320;28;19936;-89
2023/12/06 03:12:02;;;;;;;;;;;;;;;1.06;80.55;100590.75;4163509;28;20024;-88
2023/12/06 03:14:24;;;;;;;;;;;;;;;1.06;80.39;100588.94;4188037;28;19936;-88
2023/12/06 03:16:45;;;;;;;;;;;;;;;1.07;80.54;100600.44;4189922;28;19963;-89
2023/12/06 03:19:05;;;;;;;;;;;;;;;1.06;80.59;100588.94;4190530;28;20634;-87
2023/12/06 03:21:26;;;;;;;;;;;;;;;1.06;80.69;100590.75;4189514;28;19935;-90
2023/12/06 03:23:47;;;;;;;;;;;;;;;1.06;80.44;100591.59;4173053;28;20056;-89
2023/12/06 03:26:08;;;;;;;;;;;;;;;1.07;80.49;100581.81;4174784;28;19931;-88
2023/12/06 03:28:28;;;;;;;;;;;;;;;1.07;80.61;100589.81;4187831;28;19995;-90
2023/12/06 03:30:54;;;;;;;;;;;;;;;1.07;80.69;100581.81;4176138;28;19931;-89
2023/12/06 03:33:15;;;;;;;;;;;;;;;1.08;80.45;100580.84;4206732;28;19974;-90
2023/12/06 03:35:37;;;;;;;;;;;;;;;1.08;80.77;100579.03;4174314;28;20417;-90
2023/12/06 03:37:58;;;;;;;;;;;;;;;1.07;80.69;100585.31;4204937;28;19971;-90
2023/12/06 03:40:19;;;;;;;;;;;;;;;1.08;80.69;100586.16;4190543;28;19932;-90
2023/12/06 03:42:41;;;;;;;;;;;;;;;1.09;80.58;100587.88;4175389;28;19979;-89
2023/12/06 03:45:02;;;;;;;;;;;;;;;1.08;80.53;100587.03;4176051;28;20000;-90
2023/12/06 03:47:25;;;;;;;;;;;;;;;1.10;80.83;100586.03;4164211;28;19988;-92
2023/12/06 03:49:48;;;;;;;;;;;;;;;1.10;80.49;100578.94;4189925;28;19954;-90
2023/12/06 03:52:09;;;;;;;;;;;;;;;1.10;80.63;100576.28;4200473;28;19974;-90
2023/12/06 03:54:33;;;;;;;;;;;;;;;1.11;80.63;100585.91;4174750;28;19935;-90
2023/12/06 03:56:54;;;;;;;;;;;;;;;1.13;80.67;100585.81;4177543;28;20017;-90
2023/12/06 03:59:15;;;;;;;;;;;;;;;1.14;80.74;100595.50;4188485;28;19982;-90
2023/12/06 04:01:36;;;;;;;;;;;;;;;1.14;80.75;100596.31;4192272;28;19931;-89
2023/12/06 04:03:58;;;;;;;;;;;;;;;1.12;80.70;100600.94;4187183;28;19932;-90
2023/12/06 04:06:21;;;;;;;;;;;;;;;1.14;80.88;100596.31;4190466;28;19970;-90
2023/12/06 04:08:44;;;;;;;;;;;;;;;1.15;80.88;100598.03;4175188;28;19932;-90
2023/12/06 04:11:06;;;;;;;;;;;;;;;1.15;80.94;100600.69;4172690;28;19936;-88
2023/12/06 04:13:27;;;;;;;;;;;;;;;1.15;81.00;100599.84;4188703;28;20350;-87
2023/12/06 04:15:47;;;;;;;;;;;;;;;1.17;80.79;100587.25;4189773;28;20424;-88
2023/12/06 04:18:08;;;;;;;;;;;;;;;1.15;80.67;100591.88;4175363;28;20041;-88
2023/12/06 04:20:30;;;;;;;;;;;;;;;1.15;80.93;100595.38;4188944;28;19934;-87
2023/12/06 04:22:51;;;;;;;;;;;;;;;1.13;80.96;100602.63;4204593;28;19973;-88
2023/12/06 04:25:13;;;;;;;;;;;;;;;1.11;80.90;100595.72;4175824;28;19955;-88
2023/12/06 04:27:33;;;;;;;;;;;;;;;1.15;80.82;100598.03;4185778;28;20457;-87
2023/12/06 04:29:53;;;;;;;;;;;;;;;1.15;80.84;100600.69;4186866;28;19980;-88
2023/12/06 04:32:14;;;;;;;;;;;;;;;1.14;81.01;100598.16;4160337;28;20268;-88
2023/12/06 04:34:37;;;;;;;;;;;;;;;1.14;80.87;100595.50;4202271;28;19933;-87
2023/12/06 04:37:01;;;;;;;;;;;;;;;1.13;80.94;100597.31;4202149;28;19931;-87
2023/12/06 04:39:22;;;;;;;;;;;;;;;1.15;81.16;100597.19;4187110;28;20339;-88
2023/12/06 04:41:42;;;;;;;;;;;;;;;1.15;81.12;100598.03;4188360;28;19979;-87
2023/12/06 04:44:03;;;;;;;;;;;;;;;1.16;81.05;100601.53;4187399;28;20470;-88
2023/12/06 04:46:24;;;;;;;;;;;;;;;1.17;81.31;100600.56;4203079;28;19987;-87
2023/12/06 04:48:44;;;;;;;;;;;;;;;1.15;80.96;100599.84;4189073;28;19930;-86
2023/12/06 04:51:06;;;;;;;;;;;;;;;1.15;81.32;100598.03;4205873;28;20594;-86
2023/12/06 04:53:29;;;;;;;;;;;;;;;1.16;81.18;100596.19;4191047;28;19935;-86
2023/12/06 04:55:49;;;;;;;;;;;;;;;1.17;81.17;100598.75;4206465;28;19936;-86
2023/12/06 04:58:10;;;;;;;;;;;;;;;1.17;81.04;100603.22;4191471;28;20424;-87
2023/12/06 05:00:31;;;;;;;;;;;;;;;1.17;80.99;100603.22;4177465;28;20009;-87
2023/12/06 05:02:52;;;;;;;;;;;;;;;1.17;81.13;100595.25;4190778;28;19931;-88
2023/12/06 05:05:15;;;;;;;;;;;;;;;1.18;81.02;100602.28;4206764;28;20325;-87
2023/12/06 05:07:36;;;;;;;;;;;;;;;1.17;81.21;100603.22;4205628;28;19932;-87
2023/12/06 05:09:58;;;;;;;;;;;;;;;1.16;81.12;100594.41;4207011;28;19977;-87
2023/12/06 05:12:19;;;;;;;;;;;;;;;1.18;81.13;100596.94;4201517;28;19931;-87
2023/12/06 05:14:40;;;;;;;;;;;;;;;1.17;81.10;100590.75;4165554;28;19984;-87
2023/12/06 05:17:01;;;;;;;;;;;;;;;1.18;81.28;100591.63;4179685;28;19935;-87
2023/12/06 05:19:22;;;;;;;;;;;;;;;1.18;81.46;100592.47;4206738;28;19936;-86
2023/12/06 05:21:42;;;;;;;;;;;;;;;1.17;81.39;100593.41;4204695;28;19936;-88
2023/12/06 05:24:03;;;;;;;;;;;;;;;1.17;81.45;100589.94;4179802;28;19935;-88
2023/12/06 05:26:27;;;;;;;;;;;;;;;1.17;81.41;100593.41;4191374;28;19983;-88
2023/12/06 05:28:48;;;;;;;;;;;;;;;1.17;81.42;100590.75;4205277;28;19946;-87
2023/12/06 05:31:08;;;;;;;;;;;;;;;1.18;81.18;100594.28;4205022;28;20397;-86
2023/12/06 05:33:29;;;;;;;;;;;;;;;1.17;81.21;100590.75;4205584;28;20315;-86
2023/12/06 05:35:50;;;;;;;;;;;;;;;1.19;81.24;100593.31;4191186;28;20024;-86
2023/12/06 05:38:15;;;;;;;;;;;;;;;1.21;81.48;100589.56;4190160;28;20022;-89
2023/12/06 05:40:36;;;;;;;;;;;;;;;1.20;81.45;100587.88;4189267;28;19932;-87
2023/12/06 05:42:58;;;;;;;;;;;;;;;1.18;81.40;100589.81;4178155;28;19932;-85
2023/12/06 05:45:19;;;;;;;;;;;;;;;1.20;81.46;100592.34;4192195;28;19936;-88
2023/12/06 05:47:40;;;;;;;;;;;;;;;1.21;81.29;100594.06;4176369;28;19983;-86
2023/12/06 05:50:01;;;;;;;;;;;;;;;1.23;81.53;100602.75;4203621;28;19939;-85
2023/12/06 05:52:22;;;;;;;;;;;;;;;1.21;81.25;100604.69;4161781;28;20438;-86
2023/12/06 05:54:44;;;;;;;;;;;;;;;1.22;81.33;100601.91;4193579;28;19935;-87
2023/12/06 05:57:06;;;;;;;;;;;;;;;1.22;81.59;100603.72;4204719;28;20330;-87
2023/12/06 05:59:28;;;;;;;;;;;;;;;1.18;81.33;100596.94;4192172;28;19931;-87
2023/12/06 06:01:49;;;;;;;;;;;;;;;1.22;81.62;100604.56;4203743;28;20024;-84
2023/12/06 06:04:10;;;;;;;;;;;;;;;1.20;81.62;100597.66;4206446;28;19982;-86
2023/12/06 06:06:33;;;;;;;;;;;;;;;1.21;81.45;100608.19;4204232;28;20016;-86
2023/12/06 06:08:54;;;;;;;;;;;;;;;1.21;81.50;100604.69;4204009;28;19930;-86
2023/12/06 06:11:14;;;;;;;;;;;;;;;1.21;81.48;100607.34;4188291;28;19955;-85
2023/12/06 06:13:35;;;;;;;;;;;;;;;1.21;81.50;100605.53;4190249;28;19932;-84
2023/12/06 06:15:57;;;;;;;;;;;;;;;1.21;81.70;100610.84;4188792;28;19936;-84
2023/12/06 06:18:18;;;;;;;;;;;;;;;1.20;81.58;100603.81;4176134;28;20006;-85
2023/12/06 06:20:39;;;;;;;;;;;;;;;1.23;81.56;100608.06;4176013;28;20083;-87
2023/12/06 06:23:00;;;;;;;;;;;;;;;1.24;81.70;100602.63;4189691;28;19932;-85
2023/12/06 06:25:22;;;;;;;;;;;;;;;1.25;81.58;100603.47;4188367;28;19935;-87
2023/12/06 06:27:43;;;;;;;;;;;;;;;1.25;81.55;100606.13;4189445;28;19936;-88
2023/12/06 06:30:10;;;;;;;;;;;;;;;1.23;81.57;100608.91;4203387;28;20589;-90
2023/12/06 06:32:33;;;;;;;;;;;;;;;1.24;81.74;100609.78;4183224;28;20440;-89
2023/12/06 06:34:54;;;;;;;;;;;;;;;1.25;81.66;100612.31;4186815;28;19947;-88
2023/12/06 06:37:15;;;;;;;;;;;;;;;1.25;81.78;100614.97;4183851;28;20402;-88
2023/12/06 06:39:36;;;;;;;;;;;;;;;1.25;81.78;100614.97;4200739;28;19931;-89
2023/12/06 06:41:57;;;;;;;;;;;;;;;1.27;81.75;100620.19;4197378;28;20310;-88
2023/12/06 06:44:18;;;;;;;;;;;;;;;1.23;81.91;100616.06;4199111;28;19935;-88
2023/12/06 06:46:38;;;;;;;;;;;;;;;1.26;81.75;100621.13;4204802;28;19978;-90
2023/12/06 06:49:01;;;;;;;;;;;;;;;1.26;81.86;100624.63;4173607;28;20000;-87
2023/12/06 06:51:31;;;;;;;;;;;;;;;1.26;81.76;100624.63;4201575;28;20398;-89
2023/12/06 06:53:52;;;;;;;;;;;;;;;1.23;81.63;100622.22;4177606;28;19935;-87
2023/12/06 06:56:13;;;;;;;;;;;;;;;1.24;81.69;100623.09;4188052;28;20306;-86
2023/12/06 06:58:34;;;;;;;;;;;;;;;1.25;81.75;100622.97;4188395;28;19931;-86
2023/12/06 07:00:56;;;;;;;;;;;;;;;1.24;81.74;100629.25;4176149;28;19932;-86
2023/12/06 07:03:16;;;;;;;;;;;;;;;1.24;81.83;100623.91;4189370;28;19931;-85
2023/12/06 07:05:39;;;;;;;;;;;;;;;1.24;81.59;100631.06;4191782;28;19931;-86
2023/12/06 07:08:00;;;;;;;;;;;;;;;1.28;81.67;100629.84;4203788;28;19935;-86
2023/12/06 07:10:22;;;;;;;;;;;;;;;1.28;81.75;100634.31;4187611;28;20311;-86
2023/12/06 07:12:43;;;;;;;;;;;;;;;1.29;81.96;100636.03;4172531;28;19935;-87
2023/12/06 07:15:04;;;;;;;;;;;;;;;1.25;81.81;100638.06;4174506;28;19935;-87
2023/12/06 07:17:25;;;;;;;;;;;;;;;1.24;81.80;100639.03;4187495;28;20854;-87
2023/12/06 07:19:45;;;;;;;;;;;;;;;1.24;81.83;100644.38;4198830;28;19982;-87
2023/12/06 07:22:08;;;;;;;;;;;;;;;1.24;82.06;100645.19;4203325;28;19931;-87
2023/12/06 07:24:29;;;;;;;;;;;;;;;1.24;81.92;100653.19;4175083;28;19975;-87
2023/12/06 07:26:52;;;;;;;;;;;;;;;1.25;81.91;100654.03;4187914;28;20038;-84
2023/12/06 07:29:14;;;;;;;;;;;;;;;1.24;82.05;100649.69;4200677;28;19935;-85
2023/12/06 07:31:34;;;;;;;;;;;;;;;1.25;81.91;100662.88;4199448;28;19931;-84
2023/12/06 07:33:55;;;;;;;;;;;;;;;1.24;81.85;100655.00;4174302;28;19978;-84
2023/12/06 07:36:20;;;;;;;;;;;;;;;1.25;81.88;100656.69;4202435;28;20314;-85
2023/12/06 07:38:43;;;;;;;;;;;;;;;1.26;81.88;100661.03;4188169;28;20814;-86
2023/12/06 07:41:04;;;;;;;;;;;;;;;1.26;82.02;100659.22;4199381;28;20401;-87
2023/12/06 07:43:27;;;;;;;;;;;;;;;1.26;82.09;100661.03;4200579;28;19932;-85
2023/12/06 07:45:48;;;;;;;;;;;;;;;1.25;82.16;100657.56;4186697;28;20259;-83
2023/12/06 07:48:08;;;;;;;;;;;;;;;1.27;81.97;100660.09;4200516;28;20035;-85
2023/12/06 07:50:29;;;;;;;;;;;;;;;1.30;82.02;100664.31;4187547;28;19991;-83
2023/12/06 07:52:50;;;;;;;;;;;;;;;1.28;81.89;100664.44;4173837;28;20394;-83
2023/12/06 07:55:14;;;;;;;;;;;;;;;1.28;82.00;100669.75;4174861;28;19935;-86
2023/12/06 07:57:35;;;;;;;;;;;;;;;1.28;82.09;100668.91;4187337;28;19984;-85
2023/12/06 07:59:56;;;;;;;;;;;;;;;1.30;82.09;100669.63;4185040;28;20421;-88
2023/12/06 08:02:18;;;;;;;;;;;;;;;1.28;81.99;100669.75;4186806;28;20043;-84
2023/12/06 08:04:38;;;;;;;;;;;;;;;1.29;82.19;100668.78;4201812;28;19935;-85
2023/12/06 08:06:59;;;;;;;;;;;;;;;1.28;82.00;100676.91;4201642;28;20023;-87
2023/12/06 08:09:20;;;;;;;;;;;;;;;1.30;82.08;100673.16;4173210;28;19936;-85
2023/12/06 08:11:43;;;;;;;;;;;;;;;1.30;82.24;100669.63;4174451;28;19933;-86
2023/12/06 08:14:03;;;;;;;;;;;;;;;1.29;82.22;100675.94;4185184;28;19955;-87
2023/12/06 08:16:24;;;;;;;;;;;;;;;1.27;82.06;100676.06;4201620;28;19954;-86
2023/12/06 08:18:44;;;;;;;;;;;;;;;1.30;82.08;100678.47;4189117;28;19936;-86
2023/12/06 08:21:07;;;;;;;;;;;;;;;1.30;82.09;100677.63;4174436;28;19935;-85
2023/12/06 08:23:28;;;;;;;;;;;;;;;1.30;82.15;100681.16;4201673;28;19932;-84
2023/12/06 08:25:53;;;;;;;;;;;;;;;1.29;82.15;100681.25;4205652;28;19947;-84
2023/12/06 08:28:16;;;;;;;;;;;;;;;1.30;82.40;100680.28;4188751;28;19939;-86
2023/12/06 08:30:37;;;;;;;;;;;;;;;1.29;82.35;100683.91;4187850;28;20031;-87
2023/12/06 08:32:58;;;;;;;;;;;;;;;1.30;82.36;100685.59;4174460;28;19932;-86
2023/12/06 08:35:19;;;;;;;;;;;;;;;1.30;82.28;100685.59;4205252;28;19943;-86
2023/12/06 08:37:40;;;;;;;;;;;;;;;1.30;82.18;100685.59;4203278;28;20029;-86
2023/12/06 08:40:03;;;;;;;;;;;;;;;1.31;82.14;100688.13;4204726;28;19970;-85
2023/12/06 08:42:24;;;;;;;;;;;;;;;1.34;82.43;100695.88;4203361;28;19958;-86
2023/12/06 08:44:46;;;;;;;;;;;;;;;1.36;82.21;100693.94;4176325;28;20229;-86
2023/12/06 08:47:07;;;;;;;;;;;;;;;1.35;82.32;100692.28;4199905;28;19931;-86
2023/12/06 08:49:29;;;;;;;;;;;;;;;1.34;82.24;100690.56;4198777;28;19943;-86
2023/12/06 08:51:49;;;;;;;;;;;;;;;1.35;82.46;100683.41;4187562;28;20039;-86
2023/12/06 08:54:10;;;;;;;;;;;;;;;1.35;82.34;100686.94;4197877;28;19932;-86
2023/12/06 08:56:31;;;;;;;;;;;;;;;1.34;82.50;100682.56;4188003;28;19936;-86
2023/12/06 08:58:52;;;;;;;;;;;;;;;1.33;82.60;100686.19;4187201;28;20014;-84
2023/12/06 09:01:14;;;;;;;;;;;;;;;1.35;82.49;100680.75;4199156;28;19978;-85
2023/12/06 09:03:36;;;;;;;;;;;;;;;1.35;82.38;100688.75;4202287;28;19967;-85
2023/12/06 09:05:57;;;;;;;;;;;;;;;1.39;82.57;100690.22;4190291;28;19931;-85
2023/12/06 09:08:19;;;;;;;;;;;;;;;1.38;82.68;100683.19;4202404;28;20299;-85
2023/12/06 09:10:40;;;;;;;;;;;;;;;1.36;82.61;100690.44;4174810;28;19939;-84
2023/12/06 09:13:01;;;;;;;;;;;;;;;1.34;82.63;100693.22;4201974;28;20397;-85
2023/12/06 09:15:21;;;;;;;;;;;;;;;1.35;82.47;100697.59;4204735;28;19986;-85
2023/12/06 09:17:43;;;;;;;;;;;;;;;1.37;82.33;100698.31;4202639;28;20282;-87
2023/12/06 09:20:05;;;;;;;;;;;;;;;1.38;82.58;100700.00;4200042;28;20519;-85
2023/12/06 09:22:25;;;;;;;;;;;;;;;1.39;82.37;100706.19;4199214;28;20014;-86
2023/12/06 09:24:46;;;;;;;;;;;;;;;1.38;82.46;100709.78;4188628;28;19983;-87
2023/12/06 09:27:07;;;;;;;;;;;;;;;1.40;82.41;100710.53;4191025;28;19934;-87
2023/12/06 09:29:28;;;;;;;;;;;;;;;1.39;82.39;100707.00;4184795;28;20079;-87
2023/12/06 09:31:49;;;;;;;;;;;;;;;1.40;82.75;100710.53;4204998;28;19990;-87
2023/12/06 09:34:11;;;;;;;;;;;;;;;1.41;82.55;100714.88;4188884;28;19974;-86
2023/12/06 09:36:32;;;;;;;;;;;;;;;1.42;82.47;100712.09;4189248;28;19936;-86
2023/12/06 09:38:53;;;;;;;;;;;;;;;1.42;82.42;100711.25;4189674;28;19946;-87
2023/12/06 09:41:14;;;;;;;;;;;;;;;1.42;82.45;100717.44;4201105;28;20330;-86
2023/12/06 09:43:39;;;;;;;;;;;;;;;1.43;82.57;100711.16;4205112;28;19931;-86
2023/12/06 09:46:05;;;;;;;;;;;;;;;1.44;82.70;100714.66;4205848;28;20345;-86
2023/12/06 09:48:27;;;;;;;;;;;;;;;1.44;82.71;100714.66;4205347;28;20271;-85
2023/12/06 09:50:51;;;;;;;;;;;;;;;1.44;82.60;100711.97;4175824;28;19995;-86
2023/12/06 09:53:12;;;;;;;;;;;;;;;1.46;82.29;100720.72;4177528;28;19933;-86
2023/12/06 09:55:35;;;;;;;;;;;;;;;1.46;82.64;100722.50;4190270;28;20374;-85
2023/12/06 09:57:56;;;;;;;;;;;;;;;1.48;82.58;100723.25;4190314;28;19931;-86
2023/12/06 10:00:17;;;;;;;;;;;;;;;1.47;82.60;100716.22;4174038;28;20108;-85
2023/12/06 10:02:49;;;;;;;;;;;;;;;1.48;82.58;100718.78;4189443;28;19984;-86
2023/12/06 10:05:10;;;;;;;;;;;;;;;1.47;82.41;100714.41;4189846;28;20004;-86
2023/12/06 10:07:34;;;;;;;;;;;;;;;1.49;82.46;100717.81;4190635;28;20015;-83
2023/12/06 10:09:55;;;;;;;;;;;;;;;1.50;82.53;100710.66;4205169;28;19936;-85
2023/12/06 10:12:15;;;;;;;;;;;;;;;1.51;82.59;100707.06;4190948;28;20600;-84
2023/12/06 10:14:37;;;;;;;;;;;;;;;1.55;82.39;100716.47;4200248;28;19928;-84
2023/12/06 10:16:57;;;;;;;;;;;;;;;1.54;82.58;100709.47;4196728;28;19939;-86
2023/12/06 10:19:21;;;;;;;;;;;;;;;1.56;82.51;100707.53;4210057;28;20019;-84
2023/12/06 10:21:42;;;;;;;;;;;;;;;1.53;82.55;100705.94;4225267;28;19934;-87
2023/12/06 10:24:07;;;;;;;;;;;;;;;1.54;82.74;100707.66;4208881;28;19935;-87
2023/12/06 10:26:28;;;;;;;;;;;;;;;1.56;82.83;100712.84;4202560;28;19916;-88
2023/12/06 10:28:49;;;;;;;;;;;;;;;1.56;82.78;100713.69;4214295;28;19930;-84
2023/12/06 10:31:10;;;;;;;;;;;;;;;1.56;82.84;100710.19;4200710;28;19956;-84
2023/12/06 10:33:30;;;;;;;;;;;;;;;1.56;82.71;100712.84;4206361;28;20440;-84
2023/12/06 10:35:51;;;;;;;;;;;;;;;1.55;82.62;100708.50;4204678;28;20267;-84
2023/12/06 10:38:12;;;;;;;;;;;;;;;1.56;82.79;100705.72;4196845;28;20376;-84
2023/12/06 10:40:35;;;;;;;;;;;;;;;1.59;82.59;100700.16;4191111;28;19932;-84
2023/12/06 10:42:59;;;;;;;;;;;;;;;1.59;82.59;100710.78;4188812;28;20034;-85
2023/12/06 10:45:20;;;;;;;;;;;;;;;1.59;82.88;100701.97;4205505;28;20050;-84
2023/12/06 10:47:41;;;;;;;;;;;;;;;1.61;82.86;100702.69;4205551;28;19966;-84
2023/12/06 10:50:03;;;;;;;;;;;;;;;1.60;82.78;100701.84;4202306;28;20021;-85
2023/12/06 10:52:24;;;;;;;;;;;;;;;1.64;82.71;100705.13;4175807;28;20002;-86
2023/12/06 10:54:46;;;;;;;;;;;;;;;1.62;82.88;100705.22;4190146;28;20006;-84
2023/12/06 10:57:09;;;;;;;;;;;;;;;1.62;82.76;100701.72;4175102;28;19975;-85
2023/12/06 10:59:30;;;;;;;;;;;;;;;1.64;82.95;100710.44;4203269;28;19931;-85
2023/12/06 11:01:50;;;;;;;;;;;;;;;1.62;82.89;100709.72;4176615;28;20414;-84
2023/12/06 11:04:11;;;;;;;;;;;;;;;1.64;82.90;100705.13;4204640;28;19983;-83
2023/12/06 11:06:37;;;;;;;;;;;;;;;1.64;82.71;100696.28;4188891;28;19952;-86
2023/12/06 11:09:03;;;;;;;;;;;;;;;1.64;82.65;100696.28;4204604;28;19931;-85
2023/12/06 11:11:33;;;;;;;;;;;;;;;1.64;82.74;100694.47;4203467;28;19930;-85
2023/12/06 11:13:58;;;;;;;;;;;;;;;1.65;82.73;100690.84;4200751;28;19932;-85
2023/12/06 11:16:21;;;;;;;;;;;;;;;1.66;82.82;100691.69;4176129;28;19952;-86
2023/12/06 11:18:44;;;;;;;;;;;;;;;1.66;82.94;100694.34;4189624;28;19963;-86
2023/12/06 11:21:05;;;;;;;;;;;;;;;1.67;82.70;100690.72;4175135;28;20394;-86
2023/12/06 11:23:27;;;;;;;;;;;;;;;1.67;82.76;100694.22;4179633;28;19990;-84
2023/12/06 11:25:48;;;;;;;;;;;;;;;1.67;82.82;100694.22;4202645;28;19935;-83
2023/12/06 11:28:12;;;;;;;;;;;;;;;1.68;83.00;100695.94;4188100;28;20422;-84
2023/12/06 11:30:44;;;;;;;;;;;;;;;1.70;82.83;100696.66;4177250;28;19947;-85
2023/12/06 11:33:08;;;;;;;;;;;;;;;1.72;82.90;100696.53;4189707;28;19940;-83
2023/12/06 11:35:29;;;;;;;;;;;;;;;1.71;82.92;100689.50;4189421;28;19975;-87
2023/12/06 11:37:53;;;;;;;;;;;;;;;1.71;82.85;100689.50;4205137;28;19931;-85
2023/12/06 11:40:17;;;;;;;;;;;;;;;1.70;82.76;100687.81;4202836;28;19993;-84
2023/12/06 11:42:38;;;;;;;;;;;;;;;1.71;83.02;100695.69;4204133;28;20013;-84
2023/12/06 11:44:58;;;;;;;;;;;;;;;1.70;83.06;100693.97;4204058;28;19962;-84
2023/12/06 11:47:25;;;;;;;;;;;;;;;1.70;82.90;100696.66;4188392;28;19931;-84
2023/12/06 11:49:51;;;;;;;;;;;;;;;1.71;82.92;100698.34;4204374;28;19935;-85
2023/12/06 11:52:12;;;;;;;;;;;;;;;1.72;83.01;100697.38;4203480;28;19932;-85
2023/12/06 11:54:44;;;;;;;;;;;;;;;1.72;82.92;100696.53;4203091;28;20022;-84
2023/12/06 11:57:06;;;;;;;;;;;;;;;1.72;83.07;100697.38;4204914;28;20659;-84
2023/12/06 11:59:26;;;;;;;;;;;;;;;1.71;83.38;100701.00;4203932;28;19939;-84
2023/12/06 12:01:46;;;;;;;;;;;;;;;1.72;83.11;100700.03;4204247;28;19969;-86
2023/12/06 12:04:11;;;;;;;;;;;;;;;1.72;83.32;100702.69;4171884;28;19931;-86
2023/12/06 12:06:33;;;;;;;;;;;;;;;1.73;83.12;100699.06;4188465;28;19931;-86
2023/12/06 12:08:56;;;;;;;;;;;;;;;1.73;83.25;100696.41;4175449;28;19983;-86
2023/12/06 12:11:19;;;;;;;;;;;;;;;1.74;83.09;100699.91;4205371;28;19931;-86
2023/12/06 12:13:41;;;;;;;;;;;;;;;1.76;83.29;100703.31;4188367;28;20012;-87
2023/12/06 12:16:02;;;;;;;;;;;;;;;1.76;83.19;100698.84;4181267;28;20409;-88
2023/12/06 12:18:26;;;;;;;;;;;;;;;1.77;83.37;100705.00;4200604;28;19978;-86
2023/12/06 12:20:48;;;;;;;;;;;;;;;1.77;83.10;100705.88;4185402;28;19940;-86
2023/12/06 12:23:09;;;;;;;;;;;;;;;1.77;83.37;100705.88;4191057;28;19931;-88